createdAt,value
2023-01-20T00:00:27.253Z,1.03
2023-01-20T00:03:04.895Z,0.98
2023-01-20T00:05:35.782Z,0.95
2023-01-20T00:08:07.853Z,0.90
2023-01-20T00:10:40.908Z,0.89
2023-01-20T00:13:10.864Z,0.78
2023-01-20T00:15:41.739Z,0.87
2023-01-20T00:18:15.173Z,0.91
2023-01-20T00:20:50.912Z,0.89
2023-01-20T00:23:28.965Z,0.99
2023-01-20T00:26:02.536Z,0.95
2023-01-20T00:28:34.361Z,0.97
2023-01-20T00:31:21.601Z,1.02
2023-01-20T00:33:56.373Z,0.91
2023-01-20T00:36:30.242Z,0.85
2023-01-20T00:39:00.757Z,0.85
2023-01-20T00:41:29.270Z,0.78
2023-01-20T00:44:06.841Z,0.85
2023-01-20T00:46:50.315Z,0.80
2023-01-20T00:49:30.595Z,0.84
2023-01-20T00:52:01.514Z,0.91
2023-01-20T00:54:31.657Z,0.91
2023-01-20T00:59:45.667Z,0.94
2023-01-20T01:02:15.724Z,0.85
2023-01-20T01:04:46.884Z,0.86
2023-01-20T01:07:16.752Z,0.86
2023-01-20T01:09:47.342Z,0.86
2023-01-20T01:12:16.321Z,0.84
2023-01-20T01:14:46.417Z,0.89
2023-01-20T01:17:16.816Z,0.86
2023-01-20T01:19:48.032Z,0.84
2023-01-20T01:22:25.816Z,0.74
2023-01-20T01:24:59.548Z,0.78
2023-01-20T01:27:30.674Z,0.70
2023-01-20T01:30:09.532Z,0.81
2023-01-20T01:32:37.857Z,0.88
2023-01-20T01:35:09.033Z,0.80
2023-01-20T01:37:37.640Z,0.81
2023-01-20T01:40:08.173Z,0.89
2023-01-20T01:42:42.880Z,0.79
2023-01-20T01:45:13.974Z,0.95
2023-01-20T01:47:59.814Z,1.00
2023-01-20T01:50:38.958Z,0.84
2023-01-20T01:53:21.523Z,0.83
2023-01-20T01:56:00.278Z,0.94
2023-01-20T01:58:47.718Z,1.01
2023-01-20T02:01:25.770Z,0.93
2023-01-20T02:04:00.195Z,0.98
2023-01-20T02:06:30.811Z,0.88
2023-01-20T02:09:04.893Z,0.84
2023-01-20T02:11:48.372Z,0.87
2023-01-20T02:14:19.183Z,0.97
2023-01-20T02:17:10.045Z,0.90
2023-01-20T02:20:14.063Z,0.99
2023-01-20T02:22:47.636Z,0.87
2023-01-20T02:25:43.312Z,0.96
2023-01-20T02:28:32.164Z,0.88
2023-01-20T02:31:09.642Z,0.85
2023-01-20T02:33:59.130Z,0.84
2023-01-20T02:36:45.343Z,0.87
2023-01-20T02:39:36.172Z,0.87
2023-01-20T02:42:11.712Z,0.80
2023-01-20T02:45:09.408Z,0.64
2023-01-20T02:47:50.719Z,0.74
2023-01-20T02:50:28.130Z,0.74
2023-01-20T02:53:13.337Z,0.77
2023-01-20T02:55:58.146Z,0.88
2023-01-20T02:58:39.261Z,0.77
2023-01-20T03:01:12.688Z,0.78
2023-01-20T03:03:49.522Z,0.74
2023-01-20T03:06:23.139Z,0.70
2023-01-20T03:09:00.851Z,0.71
2023-01-20T03:11:36.167Z,0.64
2023-01-20T03:14:32.950Z,0.81
2023-01-20T03:17:12.352Z,0.81
2023-01-20T03:19:46.335Z,0.73
2023-01-20T03:25:04.349Z,0.69
2023-01-20T03:27:35.083Z,0.72
2023-01-20T03:30:06.122Z,0.72
2023-01-20T03:32:37.843Z,0.86
2023-01-20T03:35:11.013Z,0.77
2023-01-20T03:37:42.615Z,0.87
2023-01-20T03:43:47.989Z,0.68
2023-01-20T03:46:36.986Z,0.82
2023-01-20T03:49:17.749Z,0.79
2023-01-20T03:52:01.967Z,0.75
2023-01-20T03:54:38.239Z,0.80
2023-01-20T03:57:13.259Z,0.69
2023-01-20T03:59:54.272Z,0.67
2023-01-20T04:02:26.774Z,0.56
2023-01-20T04:05:09.674Z,0.56
2023-01-20T04:07:43.780Z,0.60
2023-01-20T04:10:14.327Z,0.63
2023-01-20T04:12:45.396Z,0.67
2023-01-20T04:15:16.520Z,0.63
2023-01-20T04:17:51.154Z,0.67
2023-01-20T04:20:23.384Z,0.61
2023-01-20T04:23:02.686Z,0.60
2023-01-20T04:25:32.205Z,0.68
2023-01-20T04:28:03.587Z,0.57
2023-01-20T04:30:34.585Z,0.62
2023-01-20T04:33:10.816Z,0.67
2023-01-20T04:35:53.345Z,0.44
2023-01-20T04:38:25.012Z,0.43
2023-01-20T04:40:57.645Z,0.41
2023-01-20T04:43:29.057Z,0.46
2023-01-20T04:46:14.740Z,0.30
2023-01-20T04:48:54.481Z,0.41
2023-01-20T04:51:27.072Z,0.36
2023-01-20T04:54:06.713Z,0.38
2023-01-20T04:56:45.580Z,0.48
2023-01-20T04:59:21.319Z,0.55
2023-01-20T05:01:52.351Z,0.55
2023-01-20T05:07:08.547Z,0.51
2023-01-20T05:09:41.971Z,0.49
2023-01-20T05:12:17.723Z,0.57
2023-01-20T05:14:50.152Z,0.54
2023-01-20T05:17:20.873Z,0.56
2023-01-20T05:19:53.089Z,0.50
2023-01-20T05:22:27.956Z,0.37
2023-01-20T05:24:57.466Z,0.49
2023-01-20T05:27:50.353Z,0.46
2023-01-20T05:30:24.285Z,0.50
2023-01-20T05:33:05.698Z,0.45
2023-01-20T05:35:43.146Z,0.47
2023-01-20T05:38:13.492Z,0.42
2023-01-20T05:40:43.121Z,0.54
2023-01-20T05:43:13.003Z,0.48
2023-01-20T05:45:47.155Z,0.51
2023-01-20T05:48:19.726Z,0.40
2023-01-20T05:50:52.929Z,0.43
2023-01-20T05:53:20.997Z,0.38
2023-01-20T05:56:08.425Z,0.51
2023-01-20T05:58:45.973Z,0.53
2023-01-20T06:01:30.132Z,0.52
2023-01-20T06:04:07.890Z,0.45
2023-01-20T06:06:35.701Z,0.36
2023-01-20T06:09:08.775Z,0.46
2023-01-20T06:14:38.747Z,0.55
2023-01-20T06:17:16.073Z,0.60
2023-01-20T06:19:54.630Z,0.44
2023-01-20T06:22:38.537Z,0.43
2023-01-20T06:25:13.442Z,0.37
2023-01-20T06:27:50.891Z,0.35
2023-01-20T06:30:19.739Z,0.23
2023-01-20T06:32:56.556Z,0.37
2023-01-20T06:35:32.542Z,0.32
2023-01-20T06:38:06.241Z,0.19
2023-01-20T06:40:36.523Z,0.29
2023-01-20T06:43:10.454Z,0.30
2023-01-20T06:45:44.248Z,0.27
2023-01-20T06:48:17.200Z,0.29
2023-01-20T06:50:49.779Z,0.39
2023-01-20T06:53:21.587Z,0.42
2023-01-20T06:55:57.499Z,0.21
2023-01-20T06:58:27.135Z,0.26
2023-01-20T07:01:07.828Z,0.23
2023-01-20T07:03:46.859Z,0.24
2023-01-20T07:06:21.269Z,0.26
2023-01-20T07:08:57.195Z,0.29
2023-01-20T07:11:27.858Z,0.34
2023-01-20T07:14:11.865Z,0.29
2023-01-20T07:16:45.667Z,0.31
2023-01-20T07:19:23.407Z,0.38
2023-01-20T07:21:53.475Z,0.33
2023-01-20T07:24:28.322Z,0.35
2023-01-20T07:27:06.297Z,0.39
2023-01-20T07:29:35.931Z,0.35
2023-01-20T07:32:04.458Z,0.45
2023-01-20T07:34:36.737Z,0.34
2023-01-20T07:37:06.696Z,0.40
2023-01-20T07:39:37.867Z,0.42
2023-01-20T07:42:08.705Z,0.41
2023-01-20T07:44:52.052Z,0.57
2023-01-20T07:47:26.579Z,0.45
2023-01-20T07:52:46.256Z,0.42
2023-01-20T07:55:19.903Z,0.32
2023-01-20T07:57:57.969Z,0.48
2023-01-20T08:00:30.413Z,0.34
2023-01-20T08:03:03.066Z,0.37
2023-01-20T08:05:32.967Z,0.50
2023-01-20T08:08:06.047Z,0.46
2023-01-20T08:10:42.817Z,0.38
2023-01-20T08:13:11.629Z,0.31
2023-01-20T08:15:41.901Z,0.32
2023-01-20T08:18:15.344Z,0.44
2023-01-20T08:20:43.085Z,0.36
2023-01-20T08:23:13.545Z,0.41
2023-01-20T08:25:48.955Z,0.42
2023-01-20T08:28:23.215Z,0.57
2023-01-20T08:31:08.690Z,0.45
2023-01-20T08:33:46.697Z,0.58
2023-01-20T08:36:21.343Z,0.55
2023-01-20T08:38:58.113Z,0.58
2023-01-20T08:41:35.167Z,0.66
2023-01-20T08:44:19.777Z,0.55
2023-01-20T08:46:55.780Z,0.57
2023-01-20T08:49:32.288Z,0.57
2023-01-20T08:52:02.731Z,0.69
2023-01-20T08:54:34.541Z,0.76
2023-01-20T08:57:08.186Z,0.75
2023-01-20T08:59:38.065Z,0.79
2023-01-20T09:02:08.573Z,0.89
2023-01-20T09:04:43.050Z,0.99
2023-01-20T09:07:27.068Z,0.97
2023-01-20T09:10:13.253Z,1.11
2023-01-20T09:12:45.427Z,1.07
2023-01-20T09:15:25.589Z,1.27
2023-01-20T09:17:59.779Z,1.12
2023-01-20T09:20:31.903Z,1.07
2023-01-20T09:23:08.807Z,1.31
2023-01-20T09:25:46.380Z,1.29
2023-01-20T09:28:21.467Z,1.43
2023-01-20T09:30:52.598Z,1.28
2023-01-20T09:33:23.776Z,1.20
2023-01-20T09:36:14.421Z,1.23
2023-01-20T09:39:08.514Z,1.31
2023-01-20T09:41:57.239Z,1.52
2023-01-20T09:44:42.034Z,1.64
2023-01-20T09:47:24.123Z,1.55
2023-01-20T09:50:31.488Z,1.63
2023-01-20T09:53:25.742Z,1.53
2023-01-20T09:56:13.285Z,1.55
2023-01-20T09:58:59.562Z,1.36
2023-01-20T10:01:33.402Z,1.51
2023-01-20T10:07:15.038Z,1.35
2023-01-20T10:13:08.814Z,1.38
2023-01-20T10:15:42.326Z,1.42
2023-01-20T10:18:23.658Z,1.46
2023-01-20T10:21:09.185Z,1.66
2023-01-20T10:23:58.696Z,1.64
2023-01-20T10:26:33.717Z,1.69
2023-01-20T10:29:06.336Z,1.79
2023-01-20T10:31:48.470Z,1.26
2023-01-20T10:34:27.923Z,1.44
2023-01-20T10:37:12.319Z,1.66
2023-01-20T10:39:53.291Z,1.76
2023-01-20T10:45:15.471Z,1.51
2023-01-20T10:48:09.467Z,1.54
2023-01-20T10:51:13.088Z,1.51
2023-01-20T10:53:51.286Z,1.57
2023-01-20T10:56:34.617Z,1.62
2023-01-20T10:59:11.417Z,1.82
2023-01-20T11:01:41.650Z,1.77
2023-01-20T11:04:21.867Z,1.86
2023-01-20T11:07:09.500Z,1.82
2023-01-20T11:09:38.762Z,1.68
2023-01-20T11:12:30.325Z,1.69
2023-01-20T11:15:01.418Z,1.59
2023-01-20T11:17:33.756Z,1.47
2023-01-20T11:20:08.942Z,1.49
2023-01-20T11:22:41.391Z,1.55
2023-01-20T11:25:29.550Z,1.66
2023-01-20T11:28:02.900Z,1.63
2023-01-20T11:30:35.101Z,1.59
2023-01-20T11:33:28.419Z,1.75
2023-01-20T11:36:09.087Z,1.81
2023-01-20T11:39:06.652Z,1.87
2023-01-20T11:41:37.068Z,1.72
2023-01-20T11:44:08.058Z,1.58
2023-01-20T11:46:39.601Z,1.66
2023-01-20T11:49:15.875Z,1.71
2023-01-20T11:52:07.634Z,1.72
2023-01-20T11:54:44.303Z,1.56
2023-01-20T11:57:17.335Z,1.78
2023-01-20T11:59:54.805Z,1.65
2023-01-20T12:02:34.852Z,1.71
2023-01-20T12:05:25.457Z,1.75
2023-01-20T12:07:59.644Z,1.80
2023-01-20T12:10:33.411Z,1.77
2023-01-20T12:13:38.591Z,1.92
2023-01-20T12:16:12.454Z,1.81
2023-01-20T12:19:01.626Z,1.77
2023-01-20T12:21:40.179Z,1.85
2023-01-20T12:24:42.108Z,1.89
2023-01-20T12:27:18.840Z,1.83
2023-01-20T12:29:54.678Z,1.81
2023-01-20T12:32:26.055Z,1.75
2023-01-20T12:37:56.819Z,1.77
2023-01-20T12:40:43.818Z,1.85
2023-01-20T12:46:19.875Z,1.66
2023-01-20T12:49:23.744Z,1.72
2023-01-20T12:52:09.070Z,1.89
2023-01-20T12:54:49.283Z,1.87
2023-01-20T12:57:40.503Z,1.89
2023-01-20T13:00:31.931Z,1.87
2023-01-20T13:03:22.868Z,1.74
2023-01-20T13:06:08.806Z,1.61
2023-01-20T13:11:58.622Z,1.66
2023-01-20T13:14:49.911Z,1.67
2023-01-20T13:17:38.979Z,1.74
2023-01-20T13:20:17.293Z,1.76
2023-01-20T13:22:51.452Z,1.75
2023-01-20T13:25:32.170Z,1.75
2023-01-20T13:28:09.628Z,1.75
2023-01-20T13:30:57.728Z,1.68
2023-01-20T13:33:27.622Z,1.61
2023-01-20T13:36:00.393Z,1.69
2023-01-20T13:38:37.749Z,1.60
2023-01-20T13:41:08.381Z,1.78
2023-01-20T13:43:50.522Z,1.85
2023-01-20T13:46:34.693Z,1.70
2023-01-20T13:49:24.480Z,1.36
2023-01-20T13:51:57.228Z,1.48
2023-01-20T13:54:31.378Z,1.71
2023-01-20T13:57:27.508Z,1.74
2023-01-20T14:00:02.718Z,1.79
2023-01-20T14:02:42.392Z,1.57
2023-01-20T14:05:39.563Z,1.67
2023-01-20T14:08:21.413Z,1.58
2023-01-20T14:10:53.298Z,1.51
2023-01-20T14:13:28.249Z,1.63
2023-01-20T14:16:13.595Z,1.63
2023-01-20T14:18:45.089Z,1.74
2023-01-20T14:21:38.596Z,1.49
2023-01-20T14:24:09.059Z,1.56
2023-01-20T14:26:42.632Z,1.75
2023-01-20T14:29:20.457Z,1.61
2023-01-20T14:32:11.613Z,1.56
2023-01-20T14:34:45.891Z,1.52
2023-01-20T14:37:36.953Z,1.57
2023-01-20T14:40:32.210Z,1.71
2023-01-20T14:43:09.777Z,1.68
2023-01-20T14:45:40.780Z,1.34
2023-01-20T14:48:34.398Z,1.39
2023-01-20T14:51:06.423Z,1.31
2023-01-20T14:53:39.898Z,1.35
2023-01-20T14:56:17.449Z,1.45
2023-01-20T14:58:54.846Z,1.28
2023-01-20T15:01:28.040Z,1.47
2023-01-20T15:06:44.205Z,1.48
2023-01-20T15:09:34.574Z,1.62
2023-01-20T15:12:30.609Z,1.67
2023-01-20T15:15:27.992Z,1.36
2023-01-20T15:18:14.445Z,1.20
2023-01-20T15:23:55.843Z,1.27
2023-01-20T15:26:32.620Z,1.26
2023-01-20T15:29:06.111Z,1.48
2023-01-20T15:31:36.942Z,1.38
2023-01-20T15:34:21.013Z,1.39
2023-01-20T15:36:49.878Z,1.26
2023-01-20T15:39:42.997Z,1.18
2023-01-20T15:42:27.736Z,1.09
2023-01-20T15:44:58.595Z,1.20
2023-01-20T15:47:31.129Z,1.14
2023-01-20T15:50:12.921Z,1.12
2023-01-20T15:52:47.387Z,1.19
2023-01-20T15:55:24.488Z,1.07
2023-01-20T15:57:57.729Z,1.04
2023-01-20T16:00:34.073Z,1.08
2023-01-20T16:03:03.997Z,1.18
2023-01-20T16:05:44.578Z,1.00
2023-01-20T16:08:16.927Z,1.01
2023-01-20T16:10:47.374Z,0.84
2023-01-20T16:13:24.771Z,0.67
2023-01-20T16:15:55.065Z,0.59
2023-01-20T16:18:26.089Z,0.67
2023-01-20T16:20:56.762Z,0.80
2023-01-20T16:23:28.040Z,0.60
2023-01-20T16:25:59.180Z,0.56
2023-01-20T16:28:33.425Z,0.68
2023-01-20T16:31:03.783Z,0.63
2023-01-20T16:33:33.649Z,0.69
2023-01-20T16:36:01.468Z,0.68
2023-01-20T16:38:30.311Z,0.69
2023-01-20T16:41:08.352Z,0.69
2023-01-20T16:43:52.153Z,0.49
2023-01-20T16:46:28.870Z,0.57
2023-01-20T16:49:04.327Z,0.64
2023-01-20T16:51:36.023Z,0.63
2023-01-20T16:54:12.709Z,0.64
2023-01-20T16:56:43.007Z,0.65
2023-01-20T16:59:14.581Z,0.75
2023-01-20T17:01:42.862Z,0.73
2023-01-20T17:04:19.453Z,0.63
2023-01-20T17:06:49.771Z,0.64
2023-01-20T17:09:23.981Z,0.46
2023-01-20T17:11:53.711Z,0.44
2023-01-20T17:14:29.522Z,0.53
2023-01-20T17:17:02.048Z,0.59
2023-01-20T17:19:30.623Z,0.54
2023-01-20T17:22:02.281Z,0.58
2023-01-20T17:24:33.046Z,0.77
2023-01-20T17:27:15.404Z,0.63
2023-01-20T17:29:49.140Z,0.50
2023-01-20T17:32:19.931Z,0.44
2023-01-20T17:34:58.159Z,0.24
2023-01-20T17:40:15.721Z,0.48
2023-01-20T17:42:49.865Z,0.67
2023-01-20T17:45:19.895Z,0.64
2023-01-20T17:47:50.541Z,0.67
2023-01-20T17:50:24.710Z,0.69
2023-01-20T17:52:54.875Z,0.55
2023-01-20T17:55:25.915Z,0.47
2023-01-20T17:57:56.624Z,0.40
2023-01-20T18:00:27.821Z,0.54
2023-01-20T18:02:59.820Z,0.52
2023-01-20T18:05:34.243Z,0.45
2023-01-20T18:10:56.559Z,0.54
2023-01-20T18:13:35.530Z,0.39
2023-01-20T18:16:12.096Z,0.36
2023-01-20T18:18:43.913Z,0.30
2023-01-20T18:21:28.578Z,0.38
2023-01-20T18:24:04.443Z,0.39
2023-01-20T18:26:40.889Z,0.49
2023-01-20T18:29:15.619Z,0.38
2023-01-20T18:31:48.880Z,0.48
2023-01-20T18:34:24.772Z,0.56
2023-01-20T18:39:37.608Z,0.47
2023-01-20T18:42:08.568Z,0.42
2023-01-20T18:44:37.197Z,0.36
2023-01-20T18:47:05.151Z,0.20
2023-01-20T18:49:35.860Z,0.00
2023-01-20T18:52:07.314Z,-0.14
2023-01-20T18:54:41.363Z,-0.16
2023-01-20T18:57:11.975Z,-0.28
2023-01-20T18:59:50.424Z,-0.09
2023-01-20T19:02:26.652Z,-0.09
2023-01-20T19:05:00.486Z,-0.01
2023-01-20T19:07:31.581Z,-0.01
2023-01-20T19:10:02.523Z,0.03
2023-01-20T19:15:16.522Z,0.17
2023-01-20T19:17:47.334Z,0.15
2023-01-20T19:20:18.551Z,0.16
2023-01-20T19:22:52.442Z,0.29
2023-01-20T19:25:20.471Z,0.33
2023-01-20T19:27:56.644Z,0.24
2023-01-20T19:30:27.180Z,0.16
2023-01-20T19:35:43.589Z,0.25
2023-01-20T19:38:13.488Z,0.00
2023-01-20T19:40:47.565Z,0.03
2023-01-20T19:43:18.343Z,0.24
2023-01-20T19:45:47.011Z,0.07
2023-01-20T19:48:18.772Z,0.00
2023-01-20T19:50:49.847Z,0.13
2023-01-20T19:53:23.149Z,0.20
2023-01-20T19:55:59.237Z,0.18
2023-01-20T19:58:28.489Z,0.23
2023-01-20T20:00:59.166Z,0.32
2023-01-20T20:03:35.848Z,0.39
2023-01-20T20:06:12.033Z,0.35
2023-01-20T20:08:44.255Z,0.30
2023-01-20T20:11:21.754Z,0.30
2023-01-20T20:13:49.275Z,0.27
2023-01-20T20:16:19.747Z,0.37
2023-01-20T20:18:52.519Z,0.31
2023-01-20T20:21:28.944Z,0.25
2023-01-20T20:24:00.811Z,0.11
2023-01-20T20:26:36.717Z,0.01
2023-01-20T20:29:06.223Z,0.24
2023-01-20T20:31:40.751Z,0.32
2023-01-20T20:34:14.812Z,0.28
2023-01-20T20:36:42.936Z,0.32
2023-01-20T20:39:13.998Z,0.19
2023-01-20T20:41:42.071Z,0.05
2023-01-20T20:44:18.613Z,0.03
2023-01-20T20:46:53.424Z,0.08
2023-01-20T20:49:24.084Z,-0.23
2023-01-20T20:51:51.970Z,-0.18
2023-01-20T20:54:20.859Z,-0.36
2023-01-20T20:56:55.990Z,-0.55
2023-01-20T20:59:26.443Z,-0.55
2023-01-20T21:01:57.076Z,-0.67
2023-01-20T21:04:33.097Z,-0.47
2023-01-20T21:07:03.318Z,-0.29
2023-01-20T21:09:37.749Z,-0.23
2023-01-20T21:12:05.887Z,-0.33
2023-01-20T21:14:42.961Z,-0.38
2023-01-20T21:17:14.199Z,-0.40
2023-01-20T21:19:45.158Z,-0.44
2023-01-20T21:22:16.930Z,-0.64
2023-01-20T21:24:49.269Z,-0.33
2023-01-20T21:27:21.103Z,-0.39
2023-01-20T21:30:02.692Z,-0.55
2023-01-20T21:32:40.091Z,-0.46
2023-01-20T21:35:14.605Z,-0.41
2023-01-20T21:37:53.019Z,-0.40
2023-01-20T21:40:22.932Z,-0.45
2023-01-20T21:43:01.037Z,-0.74
2023-01-20T21:45:30.669Z,-0.50
2023-01-20T21:48:19.523Z,-0.75
2023-01-20T21:51:05.326Z,-0.71
2023-01-20T21:53:37.249Z,-0.63
2023-01-20T21:56:12.333Z,-0.65
2023-01-20T21:58:56.152Z,-0.86
2023-01-20T22:01:26.026Z,-0.92
2023-01-20T22:04:01.006Z,-1.05
2023-01-20T22:06:43.923Z,-1.05
2023-01-20T22:09:16.941Z,-1.32
2023-01-20T22:11:46.555Z,-1.25
2023-01-20T22:14:17.909Z,-1.02
2023-01-20T22:16:50.476Z,-1.04
2023-01-20T22:19:24.439Z,-0.94
2023-01-20T22:21:57.735Z,-0.98
2023-01-20T22:24:27.756Z,-1.07
2023-01-20T22:27:04.780Z,-1.09
2023-01-20T22:29:49.165Z,-1.09
2023-01-20T22:32:20.980Z,-1.07
2023-01-20T22:35:02.255Z,-0.97
2023-01-20T22:37:32.611Z,-1.10
2023-01-20T22:40:05.420Z,-1.40
2023-01-20T22:42:43.807Z,-1.29
2023-01-20T22:45:14.236Z,-1.22
2023-01-20T22:47:45.281Z,-1.21
2023-01-20T22:50:16.244Z,-1.30
2023-01-20T22:52:45.540Z,-1.29
2023-01-20T22:55:15.980Z,-1.37
2023-01-20T22:57:47.163Z,-1.51
2023-01-20T23:00:24.609Z,-1.68
2023-01-20T23:02:53.788Z,-1.87
2023-01-20T23:05:24.352Z,-1.89
2023-01-20T23:07:55.410Z,-1.88
2023-01-20T23:10:44.233Z,-2.03
2023-01-20T23:13:20.424Z,-1.90
2023-01-20T23:15:58.991Z,-2.13
2023-01-20T23:18:29.464Z,-2.23
2023-01-20T23:21:00.463Z,-1.96
2023-01-20T23:23:40.407Z,-2.02
2023-01-20T23:26:17.968Z,-2.03
2023-01-20T23:28:48.243Z,-2.13
2023-01-20T23:31:25.741Z,-2.07
2023-01-20T23:34:00.612Z,-2.01
2023-01-20T23:36:29.071Z,-2.12
2023-01-20T23:39:00.905Z,-1.93
2023-01-20T23:41:31.999Z,-2.06
2023-01-20T23:44:09.237Z,-2.21
2023-01-20T23:46:39.091Z,-2.05
2023-01-20T23:49:12.870Z,-2.21
2023-01-20T23:51:58.413Z,-2.09
2023-01-20T23:54:32.057Z,-2.22
